createdAt,value
2018-02-12T00:02:11.811Z,84.70
2018-02-12T00:04:38.102Z,85.60
2018-02-12T00:07:04.393Z,85.40
2018-02-12T00:09:30.697Z,85.50
2018-02-12T00:11:56.979Z,85.10
2018-02-12T00:14:23.639Z,85.30
2018-02-12T00:16:50.069Z,85.50
2018-02-12T00:19:16.469Z,85.80
2018-02-12T00:21:43.562Z,85.00
2018-02-12T00:24:09.825Z,85.60
2018-02-12T00:26:36.102Z,85.80
2018-02-12T00:29:02.401Z,85.30
2018-02-12T00:31:29.486Z,86.60
2018-02-12T00:33:55.780Z,86.00
2018-02-12T00:36:22.059Z,86.40
2018-02-12T00:38:49.079Z,87.80
2018-02-12T00:41:15.370Z,87.20
2018-02-12T00:43:41.616Z,86.70
2018-02-12T00:46:07.906Z,87.30
2018-02-12T00:48:34.267Z,88.10
2018-02-12T00:51:01.283Z,87.20
2018-02-12T00:53:28.301Z,88.70
2018-02-12T00:55:54.553Z,88.30
2018-02-12T00:58:20.841Z,87.80
2018-02-12T01:00:47.114Z,88.70
2018-02-12T01:03:13.377Z,89.80
2018-02-12T01:05:40.390Z,89.30
2018-02-12T01:08:06.651Z,88.70
2018-02-12T01:10:32.934Z,88.20
2018-02-12T01:12:59.937Z,89.40
2018-02-12T01:15:26.217Z,88.60
2018-02-12T01:17:52.485Z,89.10
2018-02-12T01:20:18.722Z,88.30
2018-02-12T01:22:45.762Z,89.60
2018-02-12T01:25:12.036Z,89.00
2018-02-12T01:27:38.310Z,89.00
2018-02-12T01:30:04.610Z,88.40
2018-02-12T01:32:30.874Z,87.90
2018-02-12T01:34:57.170Z,87.70
2018-02-12T01:37:23.452Z,87.50
2018-02-12T01:39:50.451Z,88.10
2018-02-12T01:42:16.742Z,87.50
2018-02-12T01:44:43.002Z,88.10
2018-02-12T01:47:10.039Z,87.70
2018-02-12T01:49:37.046Z,87.30
2018-02-12T01:52:03.335Z,86.90
2018-02-12T01:54:31.688Z,87.30
2018-02-12T01:56:57.960Z,87.70
2018-02-12T01:59:25.010Z,87.00
2018-02-12T02:01:51.310Z,86.50
2018-02-12T02:04:18.349Z,86.90
2018-02-12T02:06:45.375Z,87.10
2018-02-12T02:09:12.377Z,87.50
2018-02-12T02:11:38.658Z,86.50
2018-02-12T02:14:05.675Z,88.30
2018-02-12T02:16:31.968Z,87.80
2018-02-12T02:18:58.995Z,88.70
2018-02-12T02:21:26.014Z,89.00
2018-02-12T02:23:52.307Z,88.30
2018-02-12T02:26:18.650Z,89.20
2018-02-12T02:28:44.906Z,88.70
2018-02-12T02:31:11.206Z,89.00
2018-02-12T02:33:37.533Z,89.10
2018-02-12T02:36:03.823Z,89.10
2018-02-12T02:38:31.014Z,89.50
2018-02-12T02:40:57.290Z,89.20
2018-02-12T02:43:23.590Z,89.10
2018-02-12T02:45:50.649Z,88.90
2018-02-12T02:48:16.920Z,88.40
2018-02-12T02:50:43.180Z,88.80
2018-02-12T02:53:09.467Z,87.50
2018-02-12T02:55:36.461Z,87.90
2018-02-12T02:58:02.743Z,87.30
2018-02-12T03:00:29.023Z,87.50
2018-02-12T03:02:56.025Z,87.60
2018-02-12T03:05:22.343Z,86.90
2018-02-12T03:07:48.614Z,86.40
2018-02-12T03:10:14.909Z,86.80
2018-02-12T03:12:41.899Z,86.70
2018-02-12T03:15:08.194Z,86.20
2018-02-12T03:17:34.466Z,86.70
2018-02-12T03:20:01.457Z,86.30
2018-02-12T03:22:27.776Z,87.20
2018-02-12T03:24:54.035Z,87.20
2018-02-12T03:27:21.030Z,87.90
2018-02-12T03:29:47.311Z,86.80
2018-02-12T03:32:13.566Z,87.20
2018-02-12T03:34:39.866Z,87.40
2018-02-12T03:37:06.130Z,87.10
2018-02-12T03:39:33.217Z,88.20
2018-02-12T03:41:59.490Z,87.10
2018-02-12T03:44:25.753Z,88.00
2018-02-12T03:46:52.078Z,88.10
2018-02-12T03:49:18.342Z,88.30
2018-02-12T03:51:44.598Z,87.90
2018-02-12T03:54:10.893Z,88.10
2018-02-12T03:56:37.134Z,88.10
2018-02-12T03:59:03.419Z,88.40
2018-02-12T04:01:29.686Z,88.40
2018-02-12T04:03:56.695Z,88.40
2018-02-12T04:06:22.966Z,89.00
2018-02-12T04:08:49.216Z,88.60
2018-02-12T04:11:15.572Z,89.10
2018-02-12T04:13:42.557Z,88.90
2018-02-12T04:16:08.808Z,88.40
2018-02-12T04:18:35.074Z,88.10
2018-02-12T04:21:01.334Z,86.90
2018-02-12T04:23:27.614Z,86.70
2018-02-12T04:25:53.878Z,87.30
2018-02-12T04:28:20.574Z,87.30
2018-02-12T04:30:46.863Z,87.50
2018-02-12T04:33:13.126Z,87.50
2018-02-12T04:35:40.188Z,87.30
2018-02-12T04:38:06.450Z,86.90
2018-02-12T04:40:32.748Z,86.80
2018-02-12T04:42:59.053Z,86.60
2018-02-12T04:45:25.304Z,86.60
2018-02-12T04:47:51.582Z,86.50
2018-02-12T04:50:17.843Z,86.60
2018-02-12T04:52:44.858Z,87.00
2018-02-12T04:55:11.132Z,86.80
2018-02-12T04:57:37.388Z,86.10
2018-02-12T05:00:03.702Z,85.90
2018-02-12T05:02:29.956Z,85.40
2018-02-12T05:04:56.258Z,85.50
2018-02-12T05:07:23.299Z,86.60
2018-02-12T05:09:49.562Z,86.00
2018-02-12T05:12:15.857Z,85.80
2018-02-12T05:14:42.113Z,85.40
2018-02-12T05:17:08.374Z,85.60
2018-02-12T05:19:34.659Z,85.30
2018-02-12T05:22:01.670Z,85.80
2018-02-12T05:24:27.965Z,84.80
2018-02-12T05:26:54.225Z,84.40
2018-02-12T05:29:21.226Z,84.20
2018-02-12T05:31:47.514Z,83.20
2018-02-12T05:34:13.785Z,83.70
2018-02-12T05:36:40.808Z,84.40
2018-02-12T05:39:07.802Z,83.70
2018-02-12T05:41:34.078Z,83.60
2018-02-12T05:44:00.418Z,83.50
2018-02-12T05:46:26.678Z,83.00
2018-02-12T05:48:52.950Z,82.70
2018-02-12T05:51:19.214Z,82.80
2018-02-12T05:53:45.473Z,84.00
2018-02-12T05:56:11.753Z,84.10
2018-02-12T05:58:38.791Z,83.20
2018-02-12T06:01:05.813Z,84.50
2018-02-12T06:03:32.815Z,84.70
2018-02-12T06:05:59.089Z,84.20
2018-02-12T06:08:25.377Z,84.60
2018-02-12T06:10:52.387Z,82.80
2018-02-12T06:13:18.664Z,83.60
2018-02-12T06:15:44.970Z,83.30
2018-02-12T06:18:11.246Z,83.30
2018-02-12T06:20:37.510Z,83.60
2018-02-12T06:23:03.823Z,84.00
2018-02-12T06:25:30.137Z,83.40
2018-02-12T06:27:56.391Z,83.90
2018-02-12T06:30:22.670Z,83.70
2018-02-12T06:32:48.945Z,83.40
2018-02-12T06:35:15.937Z,83.90
2018-02-12T06:37:42.228Z,83.40
2018-02-12T06:40:08.495Z,83.60
2018-02-12T06:42:34.804Z,83.80
2018-02-12T06:45:01.061Z,83.80
2018-02-12T06:47:27.318Z,83.90
2018-02-12T06:49:53.619Z,84.20
2018-02-12T06:52:19.870Z,84.20
2018-02-12T06:54:46.176Z,85.10
2018-02-12T06:57:12.455Z,85.00
2018-02-12T06:59:38.710Z,85.00
2018-02-12T07:02:04.994Z,84.70
2018-02-12T07:04:31.245Z,84.90
2018-02-12T07:06:57.528Z,84.80
2018-02-12T07:09:23.801Z,85.30
2018-02-12T07:11:50.057Z,84.60
2018-02-12T07:14:16.334Z,84.60
2018-02-12T07:16:42.619Z,83.90
2018-02-12T07:19:08.902Z,84.70
2018-02-12T07:21:35.165Z,85.10
2018-02-12T07:24:02.530Z,84.70
2018-02-12T07:26:29.598Z,84.20
2018-02-12T07:28:55.886Z,83.60
2018-02-12T07:31:22.185Z,83.10
2018-02-12T07:33:48.500Z,83.10
2018-02-12T07:36:14.773Z,82.90
2018-02-12T07:38:41.055Z,81.80
2018-02-12T07:41:07.302Z,81.40
2018-02-12T07:43:33.627Z,81.30
2018-02-12T07:45:59.871Z,81.20
2018-02-12T07:48:26.135Z,81.30
2018-02-12T07:50:52.416Z,80.80
2018-02-12T07:53:18.712Z,79.70
2018-02-12T07:55:45.737Z,80.80
2018-02-12T07:58:12.754Z,80.50
2018-02-12T08:00:39.026Z,80.20
2018-02-12T08:03:05.371Z,80.50
2018-02-12T08:05:31.676Z,80.20
2018-02-12T08:07:58.031Z,80.20
2018-02-12T08:10:25.038Z,79.70
2018-02-12T08:12:51.310Z,79.90
2018-02-12T08:15:17.676Z,79.30
2018-02-12T08:17:43.998Z,79.10
2018-02-12T08:20:10.324Z,77.20
2018-02-12T08:22:37.383Z,77.90
2018-02-12T08:25:03.688Z,77.30
2018-02-12T08:27:30.025Z,76.80
2018-02-12T08:29:56.377Z,77.30
2018-02-12T08:32:22.763Z,77.80
2018-02-12T08:34:49.069Z,78.20
2018-02-12T08:37:15.394Z,77.60
2018-02-12T08:39:41.748Z,77.60
2018-02-12T08:42:08.060Z,79.20
2018-02-12T08:44:34.425Z,79.10
2018-02-12T08:47:00.759Z,78.80
2018-02-12T08:49:27.107Z,79.00
2018-02-12T08:51:53.481Z,78.10
2018-02-12T08:54:19.814Z,78.50
2018-02-12T08:56:46.207Z,78.50
2018-02-12T08:59:12.575Z,78.70
2018-02-12T09:01:38.897Z,77.40
2018-02-12T09:04:05.298Z,76.70
2018-02-12T09:06:31.618Z,76.40
2018-02-12T09:08:57.899Z,75.30
2018-02-12T09:11:24.270Z,75.30
2018-02-12T09:13:50.582Z,74.60
2018-02-12T09:16:16.925Z,73.70
2018-02-12T09:18:44.082Z,74.20
2018-02-12T09:21:11.173Z,73.90
2018-02-12T09:23:37.539Z,72.90
2018-02-12T09:26:03.901Z,71.70
2018-02-12T09:28:30.950Z,74.10
2018-02-12T09:30:57.964Z,74.80
2018-02-12T09:33:24.414Z,73.80
2018-02-12T09:35:51.435Z,74.90
2018-02-12T09:38:18.437Z,75.40
2018-02-12T09:40:44.746Z,75.30
2018-02-12T09:43:10.996Z,75.90
2018-02-12T09:45:38.060Z,76.30
2018-02-12T09:48:04.342Z,75.30
2018-02-12T09:50:30.594Z,76.40
2018-02-12T09:52:56.916Z,76.20
2018-02-12T09:55:23.925Z,76.10
2018-02-12T09:57:50.969Z,77.00
2018-02-12T10:00:17.230Z,76.10
2018-02-12T10:02:43.497Z,77.20
2018-02-12T10:05:09.815Z,77.60
2018-02-12T10:07:36.082Z,77.30
2018-02-12T10:10:02.440Z,77.20
2018-02-12T10:12:28.701Z,76.50
2018-02-12T10:14:54.971Z,75.40
2018-02-12T10:17:21.255Z,75.50
2018-02-12T10:19:47.559Z,75.60
2018-02-12T10:22:13.850Z,75.20
2018-02-12T10:24:40.162Z,74.20
2018-02-12T10:27:06.466Z,74.00
2018-02-12T10:29:32.781Z,73.40
2018-02-12T10:31:59.063Z,72.80
2018-02-12T10:34:26.085Z,72.80
2018-02-12T10:36:52.348Z,72.10
2018-02-12T10:39:18.673Z,69.50
2018-02-12T10:41:44.944Z,68.90
2018-02-12T10:44:12.739Z,64.60
2018-02-12T10:46:39.046Z,64.80
2018-02-12T10:49:05.375Z,63.80
2018-02-12T10:51:31.780Z,63.90
2018-02-12T10:53:58.958Z,63.30
2018-02-12T10:56:25.341Z,61.60
2018-02-12T10:58:51.665Z,61.10
2018-02-12T11:01:17.949Z,60.60
2018-02-12T11:03:44.373Z,61.60
2018-02-12T11:06:11.355Z,62.50
2018-02-12T11:08:37.804Z,61.90
2018-02-12T11:11:04.822Z,66.00
2018-02-12T11:13:31.835Z,66.30
2018-02-12T11:15:58.113Z,65.70
2018-02-12T11:18:24.412Z,65.60
2018-02-12T11:20:50.714Z,66.50
2018-02-12T11:23:17.028Z,67.60
2018-02-12T11:25:43.304Z,68.00
2018-02-12T11:28:09.659Z,67.50
2018-02-12T11:30:36.686Z,67.00
2018-02-12T11:33:02.989Z,66.30
2018-02-12T11:35:29.256Z,66.00
2018-02-12T11:37:55.537Z,63.50
2018-02-12T11:40:21.836Z,59.20
2018-02-12T11:42:48.866Z,58.30
2018-02-12T11:45:15.158Z,57.40
2018-02-12T11:47:41.437Z,52.10
2018-02-12T11:50:07.697Z,49.60
2018-02-12T11:52:33.983Z,51.10
2018-02-12T11:55:00.248Z,53.30
2018-02-12T11:57:27.283Z,56.10
2018-02-12T11:59:54.283Z,58.30
2018-02-12T12:02:20.586Z,57.90
2018-02-12T12:04:46.872Z,59.60
2018-02-12T12:07:13.163Z,59.50
2018-02-12T12:09:40.202Z,60.40
2018-02-12T12:12:07.214Z,60.20
2018-02-12T12:14:33.475Z,60.00
2018-02-12T12:16:59.766Z,58.00
2018-02-12T12:19:26.094Z,57.10
2018-02-12T12:21:52.377Z,56.60
2018-02-12T12:24:18.661Z,57.50
2018-02-12T12:26:44.920Z,58.30
2018-02-12T12:29:11.970Z,59.00
2018-02-12T12:31:38.240Z,59.20
2018-02-12T12:34:04.527Z,60.00
2018-02-12T12:36:30.829Z,60.50
2018-02-12T12:38:57.100Z,61.10
2018-02-12T12:41:23.426Z,61.60
2018-02-12T12:43:50.441Z,56.10
2018-02-12T12:46:16.737Z,55.60
2018-02-12T12:48:43.016Z,53.80
2018-02-12T12:51:09.273Z,51.40
2018-02-12T12:53:35.577Z,53.40
2018-02-12T12:56:01.910Z,53.40
2018-02-12T12:58:28.193Z,52.70
2018-02-12T13:00:54.458Z,48.90
2018-02-12T13:03:21.465Z,52.10
2018-02-12T13:05:47.748Z,50.90
2018-02-12T13:08:14.049Z,51.90
2018-02-12T13:10:40.346Z,51.40
2018-02-12T13:13:07.350Z,51.50
2018-02-12T13:15:33.621Z,51.00
2018-02-12T13:17:59.933Z,52.60
2018-02-12T13:20:26.207Z,53.20
2018-02-12T13:22:52.499Z,54.20
2018-02-12T13:25:18.811Z,53.50
2018-02-12T13:27:45.082Z,52.00
2018-02-12T13:30:11.360Z,51.90
2018-02-12T13:32:37.625Z,52.20
2018-02-12T13:35:03.960Z,53.00
2018-02-12T13:37:30.234Z,51.90
2018-02-12T13:39:56.507Z,51.10
2018-02-12T13:42:22.793Z,51.10
2018-02-12T13:44:49.093Z,51.10
2018-02-12T13:47:15.379Z,49.80
2018-02-12T13:49:41.713Z,48.00
2018-02-12T13:52:08.697Z,41.70
2018-02-12T13:54:34.977Z,41.20
2018-02-12T13:57:01.232Z,38.80
2018-02-12T13:59:27.522Z,37.70
2018-02-12T14:01:53.782Z,39.00
2018-02-12T14:04:20.042Z,39.30
2018-02-12T14:06:46.325Z,39.00
2018-02-12T14:09:13.334Z,42.00
2018-02-12T14:11:39.613Z,41.90
2018-02-12T14:14:06.609Z,43.80
2018-02-12T14:16:33.597Z,44.50
2018-02-12T14:18:59.885Z,44.80
2018-02-12T14:21:26.192Z,45.50
2018-02-12T14:23:52.485Z,45.80
2018-02-12T14:26:19.474Z,47.30
2018-02-12T14:28:45.735Z,47.00
2018-02-12T14:31:12.770Z,48.80
2018-02-12T14:33:39.025Z,48.50
2018-02-12T14:36:05.295Z,48.60
2018-02-12T14:38:32.338Z,51.40
2018-02-12T14:40:59.328Z,51.90
2018-02-12T14:43:25.593Z,51.70
2018-02-12T14:45:51.885Z,51.80
2018-02-12T14:48:18.890Z,53.90
2018-02-12T14:50:45.217Z,53.50
2018-02-12T14:53:11.505Z,53.20
2018-02-12T14:55:37.766Z,54.60
2018-02-12T14:58:04.791Z,53.30
2018-02-12T15:00:31.833Z,53.70
2018-02-12T15:02:58.821Z,52.80
2018-02-12T15:05:25.109Z,52.50
2018-02-12T15:07:51.368Z,52.10
2018-02-12T15:10:17.657Z,53.90
2018-02-12T15:12:43.968Z,54.00
2018-02-12T15:15:10.470Z,54.30
2018-02-12T15:17:37.574Z,54.80
2018-02-12T15:20:04.685Z,54.60
2018-02-12T15:22:30.977Z,54.20
2018-02-12T15:24:57.249Z,54.30
2018-02-12T15:27:24.303Z,55.30
2018-02-12T15:29:51.342Z,55.50
2018-02-12T15:32:17.629Z,55.20
2018-02-12T15:34:44.673Z,55.50
2018-02-12T15:37:11.842Z,55.20
2018-02-12T15:39:38.108Z,55.50
2018-02-12T15:42:05.218Z,56.20
2018-02-12T15:44:31.482Z,55.90
2018-02-12T15:46:57.838Z,55.80
2018-02-12T15:49:24.154Z,55.90
2018-02-12T15:51:50.469Z,56.10
2018-02-12T15:54:16.744Z,55.50
2018-02-12T15:56:43.016Z,54.80
2018-02-12T15:59:09.305Z,54.80
2018-02-12T16:01:35.565Z,55.50
2018-02-12T16:04:02.574Z,55.70
2018-02-12T16:06:28.869Z,55.30
2018-02-12T16:08:55.125Z,55.40
2018-02-12T16:11:22.180Z,54.10
2018-02-12T16:13:48.457Z,54.00
2018-02-12T16:16:15.469Z,54.70
2018-02-12T16:18:41.742Z,54.30
2018-02-12T16:21:08.017Z,55.00
2018-02-12T16:23:34.325Z,55.40
2018-02-12T16:26:00.590Z,56.20
2018-02-12T16:28:26.854Z,56.10
2018-02-12T16:30:53.128Z,56.60
2018-02-12T16:33:19.377Z,56.60
2018-02-12T16:35:45.672Z,56.80
2018-02-12T16:38:11.968Z,57.00
2018-02-12T16:40:38.247Z,57.10
2018-02-12T16:43:05.261Z,58.20
2018-02-12T16:45:31.520Z,57.60
2018-02-12T16:47:57.809Z,58.30
2018-02-12T16:50:24.094Z,58.00
2018-02-12T16:52:50.361Z,58.40
2018-02-12T16:55:16.643Z,59.10
2018-02-12T16:57:42.920Z,58.90
2018-02-12T17:00:09.203Z,59.10
2018-02-12T17:02:35.500Z,58.70
2018-02-12T17:05:01.774Z,58.70
2018-02-12T17:07:28.054Z,58.20
2018-02-12T17:09:54.306Z,58.50
2018-02-12T17:12:20.594Z,59.10
2018-02-12T17:14:46.842Z,58.70
2018-02-12T17:17:13.110Z,58.40
2018-02-12T17:19:39.392Z,58.70
2018-02-12T17:22:05.649Z,60.10
2018-02-12T17:24:32.007Z,59.20
2018-02-12T17:26:58.281Z,59.80
2018-02-12T17:29:24.813Z,60.40
2018-02-12T17:31:51.284Z,61.00
2018-02-12T17:34:17.721Z,60.80
2018-02-12T17:36:44.981Z,63.30
2018-02-12T17:39:11.253Z,63.00
2018-02-12T17:41:37.529Z,62.90
2018-02-12T17:44:03.827Z,62.70
2018-02-12T17:46:30.087Z,63.70
2018-02-12T17:48:56.384Z,64.70
2018-02-12T17:51:22.698Z,65.40
2018-02-12T17:53:48.989Z,65.60
2018-02-12T17:56:15.324Z,64.80
2018-02-12T17:58:41.585Z,64.90
2018-02-12T18:01:08.669Z,69.60
2018-02-12T18:03:34.929Z,69.40
2018-02-12T18:06:01.214Z,67.40
2018-02-12T18:08:27.491Z,65.70
2018-02-12T18:10:53.761Z,68.50
2018-02-12T18:13:20.449Z,69.80
2018-02-12T18:15:46.866Z,69.20
2018-02-12T18:18:13.319Z,70.90
2018-02-12T18:20:39.661Z,73.10
2018-02-12T18:23:06.700Z,73.60
2018-02-12T18:25:33.785Z,72.00
2018-02-12T18:28:00.118Z,71.50
2018-02-12T18:30:26.809Z,73.50
2018-02-12T18:32:53.165Z,73.60
2018-02-12T18:35:19.502Z,73.30
2018-02-12T18:37:46.621Z,70.00
2018-02-12T18:40:12.988Z,69.60
2018-02-12T18:42:39.340Z,67.50
2018-02-12T18:45:05.617Z,68.90
2018-02-12T18:47:31.893Z,68.40
2018-02-12T18:49:58.173Z,71.00
2018-02-12T18:52:24.456Z,70.80
2018-02-12T18:54:50.767Z,72.30
2018-02-12T18:57:17.052Z,73.90
2018-02-12T18:59:44.101Z,73.40
2018-02-12T19:02:10.415Z,73.10
2018-02-12T19:04:37.422Z,73.70
2018-02-12T19:07:03.743Z,73.00
2018-02-12T19:09:30.011Z,73.60
2018-02-12T19:11:56.319Z,73.30
2018-02-12T19:14:22.600Z,74.20
2018-02-12T19:16:49.625Z,74.70
2018-02-12T19:19:16.662Z,72.30
2018-02-12T19:21:43.685Z,73.10
2018-02-12T19:24:09.977Z,72.40
2018-02-12T19:26:36.249Z,72.70
2018-02-12T19:29:02.529Z,74.60
2018-02-12T19:31:28.836Z,74.90
2018-02-12T19:33:55.120Z,73.60
2018-02-12T19:36:21.427Z,73.90
2018-02-12T19:38:47.846Z,74.10
2018-02-12T19:41:14.434Z,73.90
2018-02-12T19:43:41.520Z,73.60
2018-02-12T19:46:07.822Z,73.00
2018-02-12T19:48:34.121Z,73.00
2018-02-12T19:51:00.390Z,72.70
2018-02-12T19:53:26.678Z,70.40
2018-02-12T19:55:53.017Z,69.60
2018-02-12T19:58:19.315Z,69.50
2018-02-12T20:00:45.623Z,70.70
2018-02-12T20:03:11.889Z,71.30
2018-02-12T20:05:38.904Z,70.80
2018-02-12T20:08:05.190Z,70.50
2018-02-12T20:10:31.492Z,71.20
2018-02-12T20:12:57.774Z,72.00
2018-02-12T20:15:24.847Z,72.80
2018-02-12T20:17:51.113Z,72.20
2018-02-12T20:20:18.166Z,71.80
2018-02-12T20:22:44.460Z,72.20
2018-02-12T20:25:11.517Z,74.70
2018-02-12T20:27:37.786Z,74.70
2018-02-12T20:30:04.063Z,74.40
2018-02-12T20:32:30.344Z,72.10
2018-02-12T20:34:57.357Z,71.40
2018-02-12T20:37:23.664Z,71.40
2018-02-12T20:39:50.017Z,70.00
2018-02-12T20:42:16.278Z,70.70
2018-02-12T20:44:42.586Z,72.40
2018-02-12T20:47:08.862Z,72.80
2018-02-12T20:49:35.894Z,73.50
2018-02-12T20:52:02.181Z,73.00
2018-02-12T20:54:28.438Z,73.70
2018-02-12T20:56:54.749Z,74.80
2018-02-12T20:59:21.014Z,72.70
2018-02-12T21:01:47.325Z,72.80
2018-02-12T21:04:13.599Z,71.60
2018-02-12T21:06:39.873Z,71.70
2018-02-12T21:09:06.192Z,72.60
2018-02-12T21:11:32.456Z,74.60
2018-02-12T21:13:58.737Z,73.10
2018-02-12T21:16:25.734Z,73.50
2018-02-12T21:18:51.986Z,73.30
2018-02-12T21:21:19.014Z,73.80
2018-02-12T21:23:46.005Z,72.20
2018-02-12T21:26:12.278Z,72.30
2018-02-12T21:28:38.561Z,73.10
2018-02-12T21:31:04.862Z,74.20
2018-02-12T21:33:31.145Z,73.30
2018-02-12T21:35:57.404Z,74.30
2018-02-12T21:38:23.670Z,74.50
2018-02-12T21:40:49.981Z,74.60
2018-02-12T21:43:16.241Z,73.40
2018-02-12T21:45:42.521Z,72.80
2018-02-12T21:48:08.865Z,73.30
2018-02-12T21:50:35.134Z,73.40
2018-02-12T21:53:01.405Z,72.50
2018-02-12T21:55:27.697Z,74.10
2018-02-12T21:57:54.010Z,75.80
2018-02-12T22:00:20.285Z,74.30
2018-02-12T22:02:46.553Z,75.40
2018-02-12T22:05:12.837Z,74.70
2018-02-12T22:07:39.363Z,74.80
2018-02-12T22:10:05.625Z,73.60
2018-02-12T22:12:32.730Z,75.30
2018-02-12T22:14:59.641Z,75.20
2018-02-12T22:17:25.902Z,72.80
2018-02-12T22:19:52.182Z,75.00
2018-02-12T22:22:18.454Z,74.10
2018-02-12T22:24:44.791Z,74.90
2018-02-12T22:27:13.111Z,74.70
2018-02-12T22:29:39.505Z,74.60
2018-02-12T22:32:05.805Z,75.20
2018-02-12T22:34:32.065Z,76.10
2018-02-12T22:36:58.353Z,74.50
2018-02-12T22:39:24.667Z,74.50
2018-02-12T22:41:50.946Z,74.80
2018-02-12T22:44:17.218Z,75.40
2018-02-12T22:46:43.478Z,75.20
2018-02-12T22:49:09.751Z,74.70
2018-02-12T22:51:36.000Z,75.00
2018-02-12T22:54:02.261Z,75.40
2018-02-12T22:56:28.534Z,75.70
2018-02-12T22:58:54.834Z,75.90
2018-02-12T23:01:21.861Z,76.70
2018-02-12T23:03:48.863Z,75.30
2018-02-12T23:06:15.150Z,75.50
2018-02-12T23:08:41.421Z,76.00
2018-02-12T23:11:08.446Z,75.60
2018-02-12T23:13:35.477Z,75.70
2018-02-12T23:16:01.729Z,75.10
2018-02-12T23:18:28.722Z,75.40
2018-02-12T23:20:54.998Z,75.40
2018-02-12T23:23:21.254Z,75.00
2018-02-12T23:25:48.280Z,76.10
2018-02-12T23:28:14.542Z,75.60
2018-02-12T23:30:40.814Z,76.10
2018-02-12T23:33:07.838Z,77.00
2018-02-12T23:35:34.090Z,76.40
2018-02-12T23:38:00.372Z,77.30
2018-02-12T23:40:26.625Z,76.90
2018-02-12T23:42:52.873Z,77.00
2018-02-12T23:45:20.165Z,76.80
2018-02-12T23:47:46.430Z,76.90
2018-02-12T23:50:12.728Z,77.50
2018-02-12T23:52:39.005Z,77.60
2018-02-12T23:55:05.286Z,77.60
2018-02-12T23:57:31.577Z,77.90
2018-02-12T23:59:57.866Z,78.30
